createdAt,value
2023-03-07T00:02:06.581Z,78.75
2023-03-07T00:04:34.243Z,77.42
2023-03-07T00:07:01.628Z,77.90
2023-03-07T00:09:29.208Z,77.04
2023-03-07T00:11:56.854Z,77.04
2023-03-07T00:14:24.221Z,78.11
2023-03-07T00:16:52.071Z,77.31
2023-03-07T00:19:20.939Z,77.41
2023-03-07T00:21:48.350Z,77.56
2023-03-07T00:24:15.823Z,78.65
2023-03-07T00:26:43.497Z,77.30
2023-03-07T00:29:11.458Z,79.00
2023-03-07T00:31:38.866Z,80.03
2023-03-07T00:34:06.578Z,81.33
2023-03-07T00:36:33.944Z,80.89
2023-03-07T00:39:01.413Z,80.77
2023-03-07T00:41:29.393Z,80.21
2023-03-07T00:43:56.837Z,80.92
2023-03-07T00:46:25.268Z,80.94
2023-03-07T00:48:53.300Z,81.00
2023-03-07T00:51:22.428Z,80.54
2023-03-07T00:53:50.141Z,80.90
2023-03-07T00:56:24.909Z,79.78
2023-03-07T00:58:52.572Z,79.24
2023-03-07T01:01:25.956Z,80.07
2023-03-07T01:03:54.136Z,80.38
2023-03-07T01:06:24.756Z,81.83
2023-03-07T01:08:52.816Z,82.40
2023-03-07T01:11:20.371Z,83.52
2023-03-07T01:13:48.227Z,83.47
2023-03-07T01:16:21.422Z,84.01
2023-03-07T01:18:54.608Z,83.83
2023-03-07T01:21:34.167Z,82.84
2023-03-07T01:24:02.522Z,80.71
2023-03-07T01:26:31.398Z,80.14
2023-03-07T01:29:01.687Z,81.91
2023-03-07T01:31:30.687Z,81.54
2023-03-07T01:33:59.218Z,81.58
2023-03-07T01:36:30.312Z,81.77
2023-03-07T01:39:02.770Z,81.60
2023-03-07T01:41:32.385Z,82.16
2023-03-07T01:44:10.981Z,80.23
2023-03-07T01:46:42.848Z,74.82
2023-03-07T01:49:11.930Z,69.04
2023-03-07T01:51:41.978Z,67.51
2023-03-07T01:54:12.279Z,67.13
2023-03-07T01:56:40.706Z,67.05
2023-03-07T01:59:08.830Z,66.45
2023-03-07T02:01:37.197Z,70.97
2023-03-07T02:04:14.124Z,77.23
2023-03-07T02:06:41.636Z,77.93
2023-03-07T02:09:13.358Z,76.27
2023-03-07T02:11:43.507Z,78.60
2023-03-07T02:14:11.211Z,78.70
2023-03-07T02:16:39.367Z,78.74
2023-03-07T02:19:30.744Z,78.93
2023-03-07T02:22:10.544Z,78.70
2023-03-07T02:24:38.187Z,78.71
2023-03-07T02:27:06.189Z,78.40
2023-03-07T02:29:34.136Z,80.49
2023-03-07T02:32:01.862Z,79.79
2023-03-07T02:34:30.936Z,80.14
2023-03-07T02:37:05.008Z,79.38
2023-03-07T02:39:33.055Z,80.28
2023-03-07T02:42:09.542Z,80.31
2023-03-07T02:44:39.031Z,81.92
2023-03-07T02:47:09.095Z,80.20
2023-03-07T02:49:36.677Z,80.00
2023-03-07T02:52:05.204Z,78.02
2023-03-07T02:54:32.745Z,72.28
2023-03-07T02:57:00.294Z,69.10
2023-03-07T02:59:28.135Z,68.40
2023-03-07T03:01:57.004Z,72.74
2023-03-07T03:04:24.634Z,69.30
2023-03-07T03:06:52.393Z,68.42
2023-03-07T03:09:19.798Z,67.81
2023-03-07T03:11:47.320Z,67.93
2023-03-07T03:14:15.258Z,72.81
2023-03-07T03:16:42.642Z,76.50
2023-03-07T03:19:10.096Z,77.84
2023-03-07T03:21:38.542Z,78.21
2023-03-07T03:24:09.696Z,78.84
2023-03-07T03:26:37.720Z,79.22
2023-03-07T03:29:05.955Z,80.82
2023-03-07T03:31:35.011Z,80.76
2023-03-07T03:34:05.166Z,79.12
2023-03-07T03:36:33.173Z,79.23
2023-03-07T03:39:00.735Z,78.46
2023-03-07T03:41:28.216Z,78.39
2023-03-07T03:43:57.541Z,77.67
2023-03-07T03:46:25.527Z,76.84
2023-03-07T03:48:56.032Z,77.80
2023-03-07T03:51:24.607Z,79.50
2023-03-07T03:53:53.103Z,81.14
2023-03-07T03:56:22.796Z,83.06
2023-03-07T03:58:52.623Z,81.90
2023-03-07T04:01:22.724Z,80.38
2023-03-07T04:03:51.768Z,79.90
2023-03-07T04:06:25.924Z,79.76
2023-03-07T04:08:54.398Z,79.81
2023-03-07T04:11:23.106Z,79.19
2023-03-07T04:13:50.587Z,79.39
2023-03-07T04:16:18.787Z,78.95
2023-03-07T04:18:46.295Z,80.00
2023-03-07T04:21:13.669Z,80.50
2023-03-07T04:23:41.831Z,80.63
2023-03-07T04:26:10.544Z,81.51
2023-03-07T04:28:43.896Z,82.32
2023-03-07T04:31:22.933Z,82.06
2023-03-07T04:33:51.649Z,82.21
2023-03-07T04:36:20.364Z,82.83
2023-03-07T04:38:48.601Z,81.19
2023-03-07T04:41:18.756Z,79.79
2023-03-07T04:43:46.948Z,78.51
2023-03-07T04:46:15.756Z,79.03
2023-03-07T04:48:43.415Z,79.26
2023-03-07T04:51:11.258Z,79.49
2023-03-07T04:53:38.833Z,78.96
2023-03-07T04:56:08.286Z,78.71
2023-03-07T04:58:36.717Z,78.71
2023-03-07T05:01:05.001Z,79.23
2023-03-07T05:03:32.489Z,76.99
2023-03-07T05:06:05.730Z,75.58
2023-03-07T05:08:34.022Z,73.09
2023-03-07T05:11:02.230Z,69.13
2023-03-07T05:13:30.114Z,71.42
2023-03-07T05:15:58.928Z,71.71
2023-03-07T05:18:27.482Z,71.90
2023-03-07T05:20:55.324Z,75.73
2023-03-07T05:23:22.768Z,79.19
2023-03-07T05:25:50.565Z,78.64
2023-03-07T05:28:18.438Z,79.81
2023-03-07T05:30:46.768Z,81.48
2023-03-07T05:33:15.169Z,80.23
2023-03-07T05:35:43.397Z,80.37
2023-03-07T05:38:11.439Z,77.40
2023-03-07T05:40:40.214Z,78.08
2023-03-07T05:43:08.401Z,80.01
2023-03-07T05:45:35.881Z,80.25
2023-03-07T05:48:03.725Z,82.23
2023-03-07T05:50:31.372Z,82.30
2023-03-07T05:52:58.935Z,82.84
2023-03-07T05:55:26.975Z,83.09
2023-03-07T05:57:55.187Z,82.74
2023-03-07T06:00:23.060Z,81.56
2023-03-07T06:02:53.012Z,80.40
2023-03-07T06:05:20.770Z,80.43
2023-03-07T06:07:49.730Z,81.73
2023-03-07T06:10:17.651Z,80.55
2023-03-07T06:12:49.714Z,82.61
2023-03-07T06:15:17.810Z,81.26
2023-03-07T06:17:45.690Z,80.83
2023-03-07T06:20:13.368Z,78.78
2023-03-07T06:22:41.127Z,80.42
2023-03-07T06:25:10.098Z,81.07
2023-03-07T06:27:38.066Z,81.76
2023-03-07T06:30:09.149Z,81.50
2023-03-07T06:32:36.867Z,82.08
2023-03-07T06:35:05.039Z,82.44
2023-03-07T06:37:33.383Z,83.22
2023-03-07T06:40:01.029Z,83.56
2023-03-07T06:42:28.487Z,83.14
2023-03-07T06:44:56.382Z,82.95
2023-03-07T06:47:24.010Z,80.85
2023-03-07T06:49:52.311Z,79.21
2023-03-07T06:52:20.388Z,79.96
2023-03-07T06:54:48.800Z,79.56
2023-03-07T06:57:16.373Z,79.51
2023-03-07T06:59:44.485Z,79.23
2023-03-07T07:02:14.588Z,78.53
2023-03-07T07:04:42.166Z,77.82
2023-03-07T07:07:10.028Z,78.49
2023-03-07T07:09:37.517Z,77.55
2023-03-07T07:12:06.013Z,78.05
2023-03-07T07:14:34.773Z,77.01
2023-03-07T07:17:02.763Z,77.00
2023-03-07T07:19:30.930Z,75.85
2023-03-07T07:21:58.859Z,74.25
2023-03-07T07:24:26.413Z,73.63
2023-03-07T07:26:53.776Z,69.05
2023-03-07T07:29:21.876Z,67.04
2023-03-07T07:31:52.380Z,69.57
2023-03-07T07:34:19.671Z,73.08
2023-03-07T07:36:47.682Z,72.87
2023-03-07T07:39:15.327Z,69.36
2023-03-07T07:41:44.394Z,64.96
2023-03-07T07:44:12.361Z,64.84
2023-03-07T07:46:41.627Z,66.11
2023-03-07T07:49:09.182Z,65.50
2023-03-07T07:51:36.735Z,65.19
2023-03-07T07:54:03.954Z,65.85
2023-03-07T07:56:32.058Z,65.59
2023-03-07T07:58:59.500Z,65.59
2023-03-07T08:01:26.776Z,64.53
2023-03-07T08:03:54.440Z,63.25
2023-03-07T08:06:24.173Z,64.55
2023-03-07T08:08:51.880Z,66.38
2023-03-07T08:11:20.559Z,65.98
2023-03-07T08:13:48.282Z,63.36
2023-03-07T08:16:18.101Z,62.42
2023-03-07T08:18:54.379Z,61.01
2023-03-07T08:21:22.719Z,60.91
2023-03-07T08:23:50.497Z,59.27
2023-03-07T08:26:17.943Z,61.33
2023-03-07T08:28:45.916Z,60.73
2023-03-07T08:31:18.291Z,59.84
2023-03-07T08:33:49.422Z,60.42
2023-03-07T08:36:17.545Z,58.64
2023-03-07T08:38:50.860Z,58.54
2023-03-07T08:41:19.719Z,56.59
2023-03-07T08:43:47.214Z,54.55
2023-03-07T08:46:15.021Z,53.80
2023-03-07T08:48:43.063Z,53.84
2023-03-07T08:51:15.028Z,52.52
2023-03-07T08:53:43.486Z,52.79
2023-03-07T08:56:15.956Z,52.37
2023-03-07T08:58:44.193Z,49.84
2023-03-07T09:01:13.022Z,50.30
2023-03-07T09:03:40.627Z,49.93
2023-03-07T09:06:08.371Z,51.01
2023-03-07T09:08:35.949Z,51.27
2023-03-07T09:11:05.689Z,50.31
2023-03-07T09:13:42.954Z,49.88
2023-03-07T09:16:17.660Z,50.20
2023-03-07T09:18:45.436Z,50.75
2023-03-07T09:21:12.992Z,51.06
2023-03-07T09:23:40.410Z,49.91
2023-03-07T09:26:08.077Z,50.67
2023-03-07T09:28:35.486Z,49.70
2023-03-07T09:31:11.275Z,51.63
2023-03-07T09:33:40.181Z,50.37
2023-03-07T09:36:09.552Z,49.25
2023-03-07T09:38:37.723Z,50.50
2023-03-07T09:41:31.560Z,50.54
2023-03-07T09:44:14.316Z,51.05
2023-03-07T09:47:14.113Z,50.84
2023-03-07T09:49:48.362Z,49.69
2023-03-07T09:52:19.294Z,48.70
2023-03-07T09:55:01.299Z,49.11
2023-03-07T09:57:33.764Z,48.27
2023-03-07T10:00:25.372Z,48.10
2023-03-07T10:03:18.462Z,49.02
2023-03-07T10:05:50.988Z,49.33
2023-03-07T10:08:26.142Z,48.71
2023-03-07T10:11:12.185Z,47.09
2023-03-07T10:13:58.559Z,44.55
2023-03-07T10:16:50.687Z,45.69
2023-03-07T10:19:38.327Z,45.87
2023-03-07T10:22:15.025Z,43.39
2023-03-07T10:25:06.560Z,44.32
2023-03-07T10:27:33.982Z,44.72
2023-03-07T10:30:11.316Z,45.45
2023-03-07T10:32:46.992Z,46.09
2023-03-07T10:35:24.380Z,48.32
2023-03-07T10:37:57.117Z,47.10
2023-03-07T10:40:43.909Z,44.37
2023-03-07T10:43:21.408Z,42.96
2023-03-07T10:45:49.312Z,43.01
2023-03-07T10:48:18.664Z,44.74
2023-03-07T10:50:56.528Z,44.51
2023-03-07T10:53:29.460Z,46.02
2023-03-07T10:56:10.261Z,46.08
2023-03-07T10:58:37.996Z,45.02
2023-03-07T11:01:08.359Z,47.87
2023-03-07T11:03:54.258Z,50.45
2023-03-07T11:06:51.111Z,50.54
2023-03-07T11:09:30.155Z,51.95
2023-03-07T11:12:06.997Z,51.55
2023-03-07T11:14:59.645Z,51.37
2023-03-07T11:17:30.526Z,52.62
2023-03-07T11:19:58.365Z,53.64
2023-03-07T11:22:33.935Z,53.37
2023-03-07T11:25:09.246Z,53.06
2023-03-07T11:27:50.965Z,54.08
2023-03-07T11:30:25.281Z,54.75
2023-03-07T11:33:02.790Z,55.25
2023-03-07T11:35:48.847Z,56.10
2023-03-07T11:38:36.377Z,58.23
2023-03-07T11:41:04.090Z,59.88
2023-03-07T11:44:02.872Z,60.55
2023-03-07T11:47:09.789Z,59.75
2023-03-07T11:49:44.462Z,59.70
2023-03-07T11:52:22.003Z,60.59
2023-03-07T11:54:49.451Z,60.02
2023-03-07T11:57:39.289Z,59.83
2023-03-07T12:00:43.685Z,59.99
2023-03-07T12:03:24.926Z,61.07
2023-03-07T12:06:14.621Z,60.07
2023-03-07T12:09:20.868Z,59.72
2023-03-07T12:12:07.133Z,59.03
2023-03-07T12:14:53.342Z,59.35
2023-03-07T12:17:40.198Z,58.88
2023-03-07T12:20:15.058Z,59.20
2023-03-07T12:22:51.436Z,59.65
2023-03-07T12:25:31.470Z,58.67
2023-03-07T12:28:04.698Z,59.58
2023-03-07T12:30:57.941Z,60.50
2023-03-07T12:33:49.944Z,59.57
2023-03-07T12:36:34.131Z,60.56
2023-03-07T12:39:08.076Z,60.37
2023-03-07T12:41:47.822Z,60.36
2023-03-07T12:44:30.277Z,60.57
2023-03-07T12:47:19.565Z,60.65
2023-03-07T12:50:19.228Z,61.68
2023-03-07T12:52:52.336Z,62.02
2023-03-07T12:55:30.101Z,61.47
2023-03-07T12:58:04.445Z,61.51
2023-03-07T13:00:36.066Z,63.03
2023-03-07T13:03:07.063Z,63.70
2023-03-07T13:05:36.497Z,63.18
2023-03-07T13:08:06.056Z,63.90
2023-03-07T13:10:33.814Z,63.86
2023-03-07T13:13:21.173Z,63.55
2023-03-07T13:16:04.300Z,62.88
2023-03-07T13:18:32.078Z,63.39
2023-03-07T13:21:14.398Z,63.47
2023-03-07T13:23:42.029Z,64.61
2023-03-07T13:26:11.287Z,64.68
2023-03-07T13:28:41.413Z,64.86
2023-03-07T13:31:16.494Z,65.00
2023-03-07T13:33:44.345Z,65.49
2023-03-07T13:36:44.332Z,65.37
2023-03-07T13:39:36.826Z,64.89
2023-03-07T13:42:04.263Z,65.01
2023-03-07T13:44:40.132Z,65.28
2023-03-07T13:47:43.050Z,66.11
2023-03-07T13:50:35.513Z,67.02
2023-03-07T13:53:04.773Z,66.83
2023-03-07T13:55:39.695Z,68.34
2023-03-07T13:58:18.566Z,68.80
2023-03-07T14:00:59.591Z,69.00
2023-03-07T14:03:38.017Z,68.86
2023-03-07T14:06:12.773Z,67.75
2023-03-07T14:08:40.886Z,67.04
2023-03-07T14:11:17.985Z,66.98
2023-03-07T14:14:27.601Z,66.55
2023-03-07T14:17:07.333Z,66.30
2023-03-07T14:19:56.574Z,65.59
2023-03-07T14:22:29.798Z,66.27
2023-03-07T14:25:05.002Z,65.95
2023-03-07T14:27:45.718Z,65.72
2023-03-07T14:30:17.115Z,65.86
2023-03-07T14:32:44.543Z,65.85
2023-03-07T14:35:15.619Z,67.71
2023-03-07T14:37:44.381Z,67.02
2023-03-07T14:40:24.142Z,67.01
2023-03-07T14:43:27.193Z,67.05
2023-03-07T14:46:24.276Z,68.19
2023-03-07T14:49:03.894Z,70.63
2023-03-07T14:51:31.534Z,72.00
2023-03-07T14:54:06.046Z,72.28
2023-03-07T14:56:34.144Z,72.18
2023-03-07T14:59:03.200Z,72.08
2023-03-07T15:01:35.437Z,72.87
2023-03-07T15:04:05.977Z,72.57
2023-03-07T15:06:42.397Z,71.14
2023-03-07T15:09:10.333Z,70.47
2023-03-07T15:11:45.123Z,70.62
2023-03-07T15:14:14.134Z,70.11
2023-03-07T15:16:44.897Z,69.33
2023-03-07T15:19:34.577Z,68.45
2023-03-07T15:22:04.527Z,70.37
2023-03-07T15:24:39.758Z,72.96
2023-03-07T15:27:10.593Z,73.50
2023-03-07T15:29:44.647Z,71.53
2023-03-07T15:32:30.435Z,73.10
2023-03-07T15:35:18.655Z,71.85
2023-03-07T15:37:59.995Z,71.68
2023-03-07T15:40:33.687Z,70.27
2023-03-07T15:43:04.848Z,68.52
2023-03-07T15:45:35.219Z,68.04
2023-03-07T15:48:10.865Z,65.18
2023-03-07T15:50:38.639Z,65.42
2023-03-07T15:53:10.741Z,64.03
2023-03-07T15:55:39.245Z,65.40
2023-03-07T15:58:13.993Z,64.30
2023-03-07T16:00:42.123Z,63.77
2023-03-07T16:03:33.625Z,65.27
2023-03-07T16:06:01.991Z,63.45
2023-03-07T16:08:29.904Z,62.90
2023-03-07T16:11:04.987Z,63.73
2023-03-07T16:13:42.526Z,62.44
2023-03-07T16:16:13.075Z,62.54
2023-03-07T16:18:42.805Z,59.53
2023-03-07T16:21:15.529Z,61.93
2023-03-07T16:23:44.322Z,61.90
2023-03-07T16:26:18.655Z,61.01
2023-03-07T16:28:47.441Z,60.19
2023-03-07T16:31:17.153Z,62.79
2023-03-07T16:33:46.337Z,61.72
2023-03-07T16:36:15.153Z,63.63
2023-03-07T16:38:43.151Z,63.13
2023-03-07T16:41:21.918Z,61.59
2023-03-07T16:43:54.913Z,61.18
2023-03-07T16:46:22.780Z,61.43
2023-03-07T16:48:51.037Z,61.16
2023-03-07T16:51:21.466Z,61.60
2023-03-07T16:53:50.477Z,62.04
2023-03-07T16:56:34.480Z,61.21
2023-03-07T16:59:02.073Z,61.13
2023-03-07T17:01:31.545Z,61.03
2023-03-07T17:03:59.132Z,63.20
2023-03-07T17:06:38.454Z,61.75
2023-03-07T17:09:09.633Z,62.62
2023-03-07T17:11:40.208Z,62.54
2023-03-07T17:14:09.524Z,62.47
2023-03-07T17:16:44.683Z,62.83
2023-03-07T17:19:32.947Z,61.97
2023-03-07T17:22:02.534Z,62.34
2023-03-07T17:24:31.276Z,63.24
2023-03-07T17:27:00.201Z,63.02
2023-03-07T17:29:32.766Z,63.58
2023-03-07T17:32:00.776Z,63.94
2023-03-07T17:34:33.545Z,63.86
2023-03-07T17:37:01.820Z,64.49
2023-03-07T17:39:30.789Z,64.84
2023-03-07T17:41:59.380Z,64.57
2023-03-07T17:44:29.682Z,65.06
2023-03-07T17:46:58.315Z,65.74
2023-03-07T17:49:36.814Z,65.98
2023-03-07T17:52:07.027Z,65.82
2023-03-07T17:54:35.526Z,65.82
2023-03-07T17:57:04.130Z,66.70
2023-03-07T17:59:33.262Z,66.73
2023-03-07T18:02:02.812Z,66.65
2023-03-07T18:04:33.488Z,65.75
2023-03-07T18:07:02.251Z,65.60
2023-03-07T18:09:31.097Z,65.61
2023-03-07T18:12:03.239Z,65.52
2023-03-07T18:14:37.265Z,65.71
2023-03-07T18:17:08.857Z,66.11
2023-03-07T18:19:39.199Z,64.79
2023-03-07T18:22:08.622Z,65.46
2023-03-07T18:24:37.166Z,66.02
2023-03-07T18:27:09.150Z,66.03
2023-03-07T18:29:38.336Z,65.62
2023-03-07T18:32:06.514Z,65.76
2023-03-07T18:34:35.080Z,66.39
2023-03-07T18:37:05.997Z,66.28
2023-03-07T18:39:34.511Z,66.95
2023-03-07T18:42:02.990Z,66.00
2023-03-07T18:44:31.802Z,65.41
2023-03-07T18:47:03.664Z,64.93
2023-03-07T18:49:32.245Z,64.64
2023-03-07T18:52:01.230Z,66.36
2023-03-07T18:54:29.995Z,68.39
2023-03-07T18:56:58.950Z,66.83
2023-03-07T18:59:27.677Z,65.07
2023-03-07T19:01:56.555Z,65.98
2023-03-07T19:04:27.790Z,66.30
2023-03-07T19:06:58.660Z,67.00
2023-03-07T19:09:28.722Z,67.52
2023-03-07T19:11:57.656Z,66.49
2023-03-07T19:14:26.939Z,66.57
2023-03-07T19:16:59.017Z,67.06
2023-03-07T19:19:27.331Z,66.37
2023-03-07T19:21:57.371Z,65.74
2023-03-07T19:24:25.880Z,64.94
2023-03-07T19:26:54.307Z,64.49
2023-03-07T19:29:27.171Z,65.46
2023-03-07T19:31:55.615Z,65.59
2023-03-07T19:34:24.770Z,65.61
2023-03-07T19:36:53.905Z,67.04
2023-03-07T19:39:23.298Z,66.61
2023-03-07T19:41:52.629Z,68.56
2023-03-07T19:44:22.317Z,70.45
2023-03-07T19:46:51.474Z,69.90
2023-03-07T19:49:26.991Z,67.25
2023-03-07T19:51:56.423Z,68.27
2023-03-07T19:54:26.544Z,69.27
2023-03-07T19:56:55.007Z,68.50
2023-03-07T19:59:23.613Z,68.62
2023-03-07T20:01:53.162Z,67.96
2023-03-07T20:04:24.872Z,66.96
2023-03-07T20:06:57.780Z,66.90
2023-03-07T20:09:28.592Z,67.13
2023-03-07T20:11:58.678Z,67.09
2023-03-07T20:14:28.413Z,68.09
2023-03-07T20:16:58.472Z,66.74
2023-03-07T20:19:28.534Z,67.12
2023-03-07T20:21:58.125Z,67.52
2023-03-07T20:24:27.149Z,67.15
2023-03-07T20:26:58.057Z,64.31
2023-03-07T20:29:27.762Z,66.23
2023-03-07T20:31:59.019Z,66.10
2023-03-07T20:34:31.094Z,65.46
2023-03-07T20:37:04.262Z,66.42
2023-03-07T20:39:33.749Z,65.01
2023-03-07T20:42:11.529Z,66.66
2023-03-07T20:44:41.045Z,66.74
2023-03-07T20:47:09.940Z,65.90
2023-03-07T20:49:39.011Z,67.22
2023-03-07T20:52:09.203Z,67.55
2023-03-07T20:54:38.293Z,67.89
2023-03-07T20:57:08.411Z,68.52
2023-03-07T20:59:37.427Z,68.11
2023-03-07T21:02:06.286Z,68.14
2023-03-07T21:04:35.326Z,67.41
2023-03-07T21:07:05.878Z,67.50
2023-03-07T21:09:34.574Z,67.05
2023-03-07T21:12:06.034Z,66.81
2023-03-07T21:14:35.194Z,67.71
2023-03-07T21:17:04.543Z,67.60
2023-03-07T21:19:33.317Z,68.78
2023-03-07T21:22:02.429Z,68.45
2023-03-07T21:24:31.344Z,67.61
2023-03-07T21:26:59.824Z,66.94
2023-03-07T21:29:28.657Z,67.36
2023-03-07T21:31:56.857Z,67.54
2023-03-07T21:34:26.360Z,66.33
2023-03-07T21:36:57.015Z,66.85
2023-03-07T21:39:27.090Z,65.69
2023-03-07T21:41:57.171Z,66.98
2023-03-07T21:44:26.096Z,66.94
2023-03-07T21:46:54.144Z,67.25
2023-03-07T21:49:22.856Z,65.71
2023-03-07T21:51:51.079Z,66.09
2023-03-07T21:54:18.872Z,66.40
2023-03-07T21:56:46.427Z,66.90
2023-03-07T21:59:14.258Z,65.79
2023-03-07T22:01:41.789Z,65.18
2023-03-07T22:04:09.775Z,66.47
2023-03-07T22:06:37.825Z,66.80
2023-03-07T22:09:05.708Z,67.37
2023-03-07T22:11:33.770Z,66.91
2023-03-07T22:14:01.158Z,67.70
2023-03-07T22:16:28.628Z,69.35
2023-03-07T22:18:57.122Z,68.17
2023-03-07T22:21:27.822Z,69.21
2023-03-07T22:23:57.910Z,67.90
2023-03-07T22:26:26.361Z,69.05
2023-03-07T22:28:54.473Z,68.73
2023-03-07T22:31:21.888Z,69.05
2023-03-07T22:33:49.582Z,69.89
2023-03-07T22:36:17.002Z,70.84
2023-03-07T22:38:44.685Z,69.71
2023-03-07T22:41:16.823Z,70.08
2023-03-07T22:43:44.414Z,69.73
2023-03-07T22:46:12.384Z,68.85
2023-03-07T22:48:40.312Z,69.38
2023-03-07T22:51:16.576Z,69.64
2023-03-07T22:53:44.465Z,70.05
2023-03-07T22:56:20.439Z,69.97
2023-03-07T22:58:48.289Z,71.24
2023-03-07T23:01:20.249Z,70.60
2023-03-07T23:03:49.845Z,70.21
2023-03-07T23:06:17.812Z,71.50
2023-03-07T23:08:46.533Z,70.94
2023-03-07T23:11:14.770Z,70.92
2023-03-07T23:13:44.563Z,71.85
2023-03-07T23:16:16.766Z,72.04
2023-03-07T23:18:46.092Z,73.56
2023-03-07T23:21:15.437Z,73.24
2023-03-07T23:23:43.127Z,73.55
2023-03-07T23:26:17.337Z,73.93
2023-03-07T23:28:45.408Z,77.01
2023-03-07T23:31:27.387Z,79.00
2023-03-07T23:33:56.664Z,79.28
2023-03-07T23:36:26.237Z,77.98
2023-03-07T23:38:53.677Z,77.67
2023-03-07T23:41:21.672Z,77.62
2023-03-07T23:43:53.551Z,76.86
2023-03-07T23:46:21.366Z,74.99
2023-03-07T23:48:49.236Z,77.39
2023-03-07T23:51:16.852Z,79.37
2023-03-07T23:53:44.273Z,76.46
2023-03-07T23:56:12.393Z,76.17
2023-03-07T23:58:39.801Z,76.49
